sensor_id;sensor_type;location;lat;lon;timestamp;P1;durP1;ratioP1;P2;durP2;ratioP2
80297;SDS011;69599;52.622;9.230;2024-01-16T00:01:51;1.40;;;0.90;;
80297;SDS011;69599;52.622;9.230;2024-01-16T00:04:16;3.00;;;1.20;;
80297;SDS011;69599;52.622;9.230;2024-01-16T00:06:42;2.85;;;0.82;;
80297;SDS011;69599;52.622;9.230;2024-01-16T00:09:08;3.15;;;1.05;;
80297;SDS011;69599;52.622;9.230;2024-01-16T00:11:39;3.45;;;0.95;;
80297;SDS011;69599;52.622;9.230;2024-01-16T00:14:05;1.65;;;0.95;;
80297;SDS011;69599;52.622;9.230;2024-01-16T00:16:30;1.25;;;0.88;;
80297;SDS011;69599;52.622;9.230;2024-01-16T00:18:56;4.35;;;1.17;;
80297;SDS011;69599;52.622;9.230;2024-01-16T00:21:21;2.28;;;0.93;;
80297;SDS011;69599;52.622;9.230;2024-01-16T00:23:46;2.72;;;0.80;;
80297;SDS011;69599;52.622;9.230;2024-01-16T00:26:21;1.50;;;0.80;;
80297;SDS011;69599;52.622;9.230;2024-01-16T00:28:47;1.35;;;0.77;;
80297;SDS011;69599;52.622;9.230;2024-01-16T00:31:13;2.10;;;0.80;;
80297;SDS011;69599;52.622;9.230;2024-01-16T00:33:38;4.20;;;0.73;;
80297;SDS011;69599;52.622;9.230;2024-01-16T00:36:04;0.65;;;0.50;;
80297;SDS011;69599;52.622;9.230;2024-01-16T00:38:32;2.47;;;0.80;;
80297;SDS011;69599;52.622;9.230;2024-01-16T00:40:58;1.30;;;0.60;;
80297;SDS011;69599;52.622;9.230;2024-01-16T00:43:23;3.05;;;0.70;;
80297;SDS011;69599;52.622;9.230;2024-01-16T00:45:49;0.85;;;0.30;;
80297;SDS011;69599;52.622;9.230;2024-01-16T00:48:14;2.65;;;0.90;;
80297;SDS011;69599;52.622;9.230;2024-01-16T00:50:40;3.30;;;0.75;;
80297;SDS011;69599;52.622;9.230;2024-01-16T00:53:06;2.55;;;0.68;;
80297;SDS011;69599;52.622;9.230;2024-01-16T00:55:31;2.10;;;0.77;;
80297;SDS011;69599;52.622;9.230;2024-01-16T00:57:57;2.47;;;0.60;;
80297;SDS011;69599;52.622;9.230;2024-01-16T01:00:22;2.38;;;0.73;;
80297;SDS011;69599;52.622;9.230;2024-01-16T01:02:47;1.58;;;0.70;;
80297;SDS011;69599;52.622;9.230;2024-01-16T01:05:13;1.42;;;0.70;;
80297;SDS011;69599;52.622;9.230;2024-01-16T01:07:38;1.65;;;0.80;;
80297;SDS011;69599;52.622;9.230;2024-01-16T01:10:04;4.22;;;1.05;;
80297;SDS011;69599;52.622;9.230;2024-01-16T01:12:30;1.92;;;0.68;;
80297;SDS011;69599;52.622;9.230;2024-01-16T01:14:55;2.90;;;0.70;;
80297;SDS011;69599;52.622;9.230;2024-01-16T01:17:21;2.15;;;1.00;;
80297;SDS011;69599;52.622;9.230;2024-01-16T01:19:46;2.70;;;0.90;;
80297;SDS011;69599;52.622;9.230;2024-01-16T01:22:12;1.52;;;0.70;;
80297;SDS011;69599;52.622;9.230;2024-01-16T01:24:37;1.75;;;1.25;;
80297;SDS011;69599;52.622;9.230;2024-01-16T01:27:03;1.58;;;0.70;;
80297;SDS011;69599;52.622;9.230;2024-01-16T01:29:29;1.30;;;1.00;;
80297;SDS011;69599;52.622;9.230;2024-01-16T01:31:54;2.78;;;1.20;;
80297;SDS011;69599;52.622;9.230;2024-01-16T01:34:19;2.97;;;1.23;;
80297;SDS011;69599;52.622;9.230;2024-01-16T01:36:45;1.50;;;0.95;;
80297;SDS011;69599;52.622;9.230;2024-01-16T01:39:10;2.08;;;1.00;;
80297;SDS011;69599;52.622;9.230;2024-01-16T01:41:36;2.45;;;1.08;;
80297;SDS011;69599;52.622;9.230;2024-01-16T01:44:02;3.03;;;1.00;;
80297;SDS011;69599;52.622;9.230;2024-01-16T01:46:27;1.60;;;0.93;;
80297;SDS011;69599;52.622;9.230;2024-01-16T01:48:53;1.17;;;0.60;;
80297;SDS011;69599;52.622;9.230;2024-01-16T01:51:18;1.40;;;0.80;;
80297;SDS011;69599;52.622;9.230;2024-01-16T01:53:44;4.10;;;1.10;;
80297;SDS011;69599;52.622;9.230;2024-01-16T01:56:11;2.90;;;1.05;;
80297;SDS011;69599;52.622;9.230;2024-01-16T01:58:39;1.23;;;1.00;;
80297;SDS011;69599;52.622;9.230;2024-01-16T02:01:06;2.40;;;0.85;;
80297;SDS011;69599;52.622;9.230;2024-01-16T02:03:39;3.25;;;0.95;;
80297;SDS011;69599;52.622;9.230;2024-01-16T02:06:06;1.33;;;0.88;;
80297;SDS011;69599;52.622;9.230;2024-01-16T02:08:32;1.40;;;0.88;;
80297;SDS011;69599;52.622;9.230;2024-01-16T02:10:57;3.20;;;1.02;;
80297;SDS011;69599;52.622;9.230;2024-01-16T02:13:23;2.30;;;0.93;;
80297;SDS011;69599;52.622;9.230;2024-01-16T02:15:49;2.15;;;0.80;;
80297;SDS011;69599;52.622;9.230;2024-01-16T02:18:15;0.98;;;0.85;;
80297;SDS011;69599;52.622;9.230;2024-01-16T02:20:41;3.88;;;0.80;;
80297;SDS011;69599;52.622;9.230;2024-01-16T02:23:07;0.77;;;0.52;;
80297;SDS011;69599;52.622;9.230;2024-01-16T02:25:32;2.53;;;0.70;;
80297;SDS011;69599;52.622;9.230;2024-01-16T02:27:59;1.55;;;0.65;;
80297;SDS011;69599;52.622;9.230;2024-01-16T02:30:27;2.55;;;0.73;;
80297;SDS011;69599;52.622;9.230;2024-01-16T02:32:52;3.67;;;1.10;;
80297;SDS011;69599;52.622;9.230;2024-01-16T02:35:17;3.42;;;1.60;;
80297;SDS011;69599;52.622;9.230;2024-01-16T02:37:43;4.03;;;0.90;;
80297;SDS011;69599;52.622;9.230;2024-01-16T02:40:09;2.15;;;1.00;;
80297;SDS011;69599;52.622;9.230;2024-01-16T02:42:35;3.53;;;1.30;;
80297;SDS011;69599;52.622;9.230;2024-01-16T02:45:02;3.40;;;0.90;;
80297;SDS011;69599;52.622;9.230;2024-01-16T02:47:29;4.90;;;1.20;;
80297;SDS011;69599;52.622;9.230;2024-01-16T02:49:54;1.77;;;0.85;;
80297;SDS011;69599;52.622;9.230;2024-01-16T02:52:20;4.25;;;1.52;;
80297;SDS011;69599;52.622;9.230;2024-01-16T02:54:45;3.10;;;1.35;;
80297;SDS011;69599;52.622;9.230;2024-01-16T02:57:11;5.32;;;0.93;;
80297;SDS011;69599;52.622;9.230;2024-01-16T02:59:36;6.03;;;1.30;;
80297;SDS011;69599;52.622;9.230;2024-01-16T03:02:01;2.90;;;0.88;;
80297;SDS011;69599;52.622;9.230;2024-01-16T03:04:27;3.97;;;0.82;;
80297;SDS011;69599;52.622;9.230;2024-01-16T03:06:53;4.45;;;0.70;;
80297;SDS011;69599;52.622;9.230;2024-01-16T03:09:18;4.70;;;1.23;;
80297;SDS011;69599;52.622;9.230;2024-01-16T03:11:44;4.93;;;1.48;;
80297;SDS011;69599;52.622;9.230;2024-01-16T03:14:09;1.67;;;1.00;;
80297;SDS011;69599;52.622;9.230;2024-01-16T03:16:34;2.33;;;0.75;;
80297;SDS011;69599;52.622;9.230;2024-01-16T03:19:00;4.78;;;2.20;;
80297;SDS011;69599;52.622;9.230;2024-01-16T03:21:25;2.75;;;1.02;;
80297;SDS011;69599;52.622;9.230;2024-01-16T03:23:51;1.95;;;0.82;;
80297;SDS011;69599;52.622;9.230;2024-01-16T03:26:16;4.20;;;1.02;;
80297;SDS011;69599;52.622;9.230;2024-01-16T03:28:42;4.03;;;1.15;;
80297;SDS011;69599;52.622;9.230;2024-01-16T03:31:07;4.05;;;1.40;;
80297;SDS011;69599;52.622;9.230;2024-01-16T03:33:33;4.57;;;1.55;;
80297;SDS011;69599;52.622;9.230;2024-01-16T03:36:06;7.13;;;1.73;;
80297;SDS011;69599;52.622;9.230;2024-01-16T03:38:32;4.30;;;1.38;;
80297;SDS011;69599;52.622;9.230;2024-01-16T03:40:59;5.05;;;1.63;;
80297;SDS011;69599;52.622;9.230;2024-01-16T03:43:24;3.22;;;1.63;;
80297;SDS011;69599;52.622;9.230;2024-01-16T03:45:50;6.25;;;2.40;;
80297;SDS011;69599;52.622;9.230;2024-01-16T03:48:15;2.88;;;1.75;;
80297;SDS011;69599;52.622;9.230;2024-01-16T03:50:40;3.97;;;1.52;;
80297;SDS011;69599;52.622;9.230;2024-01-16T03:53:08;6.50;;;1.92;;
80297;SDS011;69599;52.622;9.230;2024-01-16T03:55:34;4.57;;;1.92;;
80297;SDS011;69599;52.622;9.230;2024-01-16T03:57:59;7.85;;;2.08;;
80297;SDS011;69599;52.622;9.230;2024-01-16T04:00:25;3.47;;;1.92;;
80297;SDS011;69599;52.622;9.230;2024-01-16T04:02:51;3.00;;;1.50;;
80297;SDS011;69599;52.622;9.230;2024-01-16T04:05:17;4.28;;;1.48;;
80297;SDS011;69599;52.622;9.230;2024-01-16T04:07:42;3.22;;;1.30;;
80297;SDS011;69599;52.622;9.230;2024-01-16T04:10:08;3.47;;;1.30;;
80297;SDS011;69599;52.622;9.230;2024-01-16T04:12:33;8.50;;;1.70;;
80297;SDS011;69599;52.622;9.230;2024-01-16T04:14:59;6.35;;;2.10;;
80297;SDS011;69599;52.622;9.230;2024-01-16T04:17:24;3.78;;;1.50;;
80297;SDS011;69599;52.622;9.230;2024-01-16T04:19:49;9.60;;;2.05;;
80297;SDS011;69599;52.622;9.230;2024-01-16T04:22:15;3.97;;;1.50;;
80297;SDS011;69599;52.622;9.230;2024-01-16T04:24:41;3.85;;;1.45;;
80297;SDS011;69599;52.622;9.230;2024-01-16T04:27:06;8.05;;;1.83;;
80297;SDS011;69599;52.622;9.230;2024-01-16T04:29:32;7.18;;;1.52;;
80297;SDS011;69599;52.622;9.230;2024-01-16T04:31:57;6.43;;;1.77;;
80297;SDS011;69599;52.622;9.230;2024-01-16T04:34:23;5.18;;;1.63;;
80297;SDS011;69599;52.622;9.230;2024-01-16T04:36:48;3.90;;;1.40;;
80297;SDS011;69599;52.622;9.230;2024-01-16T04:39:14;7.97;;;2.00;;
80297;SDS011;69599;52.622;9.230;2024-01-16T04:41:39;5.78;;;1.88;;
80297;SDS011;69599;52.622;9.230;2024-01-16T04:44:04;3.03;;;1.23;;
80297;SDS011;69599;52.622;9.230;2024-01-16T04:46:30;8.38;;;1.63;;
80297;SDS011;69599;52.622;9.230;2024-01-16T04:48:55;4.75;;;1.42;;
80297;SDS011;69599;52.622;9.230;2024-01-16T04:51:21;3.97;;;1.20;;
80297;SDS011;69599;52.622;9.230;2024-01-16T04:53:46;4.43;;;1.05;;
80297;SDS011;69599;52.622;9.230;2024-01-16T04:56:11;4.47;;;1.55;;
80297;SDS011;69599;52.622;9.230;2024-01-16T04:58:37;3.53;;;0.90;;
80297;SDS011;69599;52.622;9.230;2024-01-16T05:01:03;3.88;;;1.85;;
80297;SDS011;69599;52.622;9.230;2024-01-16T05:03:28;4.15;;;1.58;;
80297;SDS011;69599;52.622;9.230;2024-01-16T05:05:53;4.30;;;1.67;;
80297;SDS011;69599;52.622;9.230;2024-01-16T05:08:20;3.47;;;1.52;;
80297;SDS011;69599;52.622;9.230;2024-01-16T05:10:46;5.88;;;1.92;;
80297;SDS011;69599;52.622;9.230;2024-01-16T05:13:12;8.85;;;2.20;;
80297;SDS011;69599;52.622;9.230;2024-01-16T05:15:38;6.75;;;1.65;;
80297;SDS011;69599;52.622;9.230;2024-01-16T05:18:03;4.82;;;1.70;;
80297;SDS011;69599;52.622;9.230;2024-01-16T05:20:29;6.57;;;1.50;;
80297;SDS011;69599;52.622;9.230;2024-01-16T05:22:54;5.00;;;1.75;;
80297;SDS011;69599;52.622;9.230;2024-01-16T05:25:19;6.43;;;1.70;;
80297;SDS011;69599;52.622;9.230;2024-01-16T05:27:46;9.80;;;1.80;;
80297;SDS011;69599;52.622;9.230;2024-01-16T05:30:11;6.55;;;1.40;;
80297;SDS011;69599;52.622;9.230;2024-01-16T05:32:37;5.57;;;1.50;;
80297;SDS011;69599;52.622;9.230;2024-01-16T05:35:04;3.78;;;1.30;;
80297;SDS011;69599;52.622;9.230;2024-01-16T05:37:30;3.42;;;1.85;;
80297;SDS011;69599;52.622;9.230;2024-01-16T05:39:55;6.10;;;2.15;;
80297;SDS011;69599;52.622;9.230;2024-01-16T05:42:20;3.15;;;1.67;;
80297;SDS011;69599;52.622;9.230;2024-01-16T05:44:46;3.95;;;1.42;;
80297;SDS011;69599;52.622;9.230;2024-01-16T05:47:11;2.72;;;1.70;;
80297;SDS011;69599;52.622;9.230;2024-01-16T05:49:37;2.75;;;1.45;;
80297;SDS011;69599;52.622;9.230;2024-01-16T05:52:02;5.63;;;1.67;;
80297;SDS011;69599;52.622;9.230;2024-01-16T05:54:28;6.10;;;1.60;;
80297;SDS011;69599;52.622;9.230;2024-01-16T05:56:53;5.28;;;1.90;;
80297;SDS011;69599;52.622;9.230;2024-01-16T05:59:19;2.92;;;1.35;;
80297;SDS011;69599;52.622;9.230;2024-01-16T06:01:44;7.05;;;1.67;;
80297;SDS011;69599;52.622;9.230;2024-01-16T06:04:10;2.67;;;1.58;;
80297;SDS011;69599;52.622;9.230;2024-01-16T06:06:35;2.92;;;1.58;;
80297;SDS011;69599;52.622;9.230;2024-01-16T06:09:01;6.97;;;1.50;;
80297;SDS011;69599;52.622;9.230;2024-01-16T06:11:33;5.80;;;1.50;;
80297;SDS011;69599;52.622;9.230;2024-01-16T06:13:59;4.75;;;2.13;;
80297;SDS011;69599;52.622;9.230;2024-01-16T06:16:25;5.40;;;1.88;;
80297;SDS011;69599;52.622;9.230;2024-01-16T06:18:50;3.03;;;1.60;;
80297;SDS011;69599;52.622;9.230;2024-01-16T06:21:16;4.95;;;2.42;;
80297;SDS011;69599;52.622;9.230;2024-01-16T06:23:42;4.35;;;2.05;;
80297;SDS011;69599;52.622;9.230;2024-01-16T06:26:08;5.97;;;1.65;;
80297;SDS011;69599;52.622;9.230;2024-01-16T06:28:33;10.02;;;2.40;;
80297;SDS011;69599;52.622;9.230;2024-01-16T06:30:59;5.88;;;1.88;;
80297;SDS011;69599;52.622;9.230;2024-01-16T06:33:24;5.50;;;1.70;;
80297;SDS011;69599;52.622;9.230;2024-01-16T06:35:50;7.32;;;2.03;;
80297;SDS011;69599;52.622;9.230;2024-01-16T06:38:16;9.00;;;2.03;;
80297;SDS011;69599;52.622;9.230;2024-01-16T06:40:41;7.22;;;2.38;;
80297;SDS011;69599;52.622;9.230;2024-01-16T06:43:07;6.70;;;2.08;;
80297;SDS011;69599;52.622;9.230;2024-01-16T06:45:32;4.35;;;1.67;;
80297;SDS011;69599;52.622;9.230;2024-01-16T06:47:57;4.40;;;1.67;;
80297;SDS011;69599;52.622;9.230;2024-01-16T06:50:23;3.25;;;1.90;;
80297;SDS011;69599;52.622;9.230;2024-01-16T06:52:48;4.35;;;1.65;;
80297;SDS011;69599;52.622;9.230;2024-01-16T06:55:14;5.75;;;2.05;;
80297;SDS011;69599;52.622;9.230;2024-01-16T06:57:39;5.03;;;1.95;;
80297;SDS011;69599;52.622;9.230;2024-01-16T07:00:05;7.18;;;2.30;;
80297;SDS011;69599;52.622;9.230;2024-01-16T07:02:32;6.10;;;2.50;;
80297;SDS011;69599;52.622;9.230;2024-01-16T07:04:57;3.60;;;2.28;;
80297;SDS011;69599;52.622;9.230;2024-01-16T07:07:23;7.47;;;2.95;;
80297;SDS011;69599;52.622;9.230;2024-01-16T07:09:49;8.00;;;2.20;;
80297;SDS011;69599;52.622;9.230;2024-01-16T07:12:15;7.80;;;2.30;;
80297;SDS011;69599;52.622;9.230;2024-01-16T07:14:40;6.60;;;2.00;;
80297;SDS011;69599;52.622;9.230;2024-01-16T07:17:06;8.40;;;3.10;;
80297;SDS011;69599;52.622;9.230;2024-01-16T07:19:32;5.88;;;2.47;;
80297;SDS011;69599;52.622;9.230;2024-01-16T07:21:58;5.68;;;2.53;;
80297;SDS011;69599;52.622;9.230;2024-01-16T07:24:23;7.80;;;2.50;;
80297;SDS011;69599;52.622;9.230;2024-01-16T07:26:49;5.55;;;2.50;;
80297;SDS011;69599;52.622;9.230;2024-01-16T07:29:14;6.47;;;2.20;;
80297;SDS011;69599;52.622;9.230;2024-01-16T07:31:40;4.68;;;2.58;;
80297;SDS011;69599;52.622;9.230;2024-01-16T07:34:06;10.27;;;2.78;;
80297;SDS011;69599;52.622;9.230;2024-01-16T07:36:31;12.93;;;5.47;;
80297;SDS011;69599;52.622;9.230;2024-01-16T07:38:57;6.82;;;2.75;;
80297;SDS011;69599;52.622;9.230;2024-01-16T07:41:22;8.95;;;2.40;;
80297;SDS011;69599;52.622;9.230;2024-01-16T07:43:48;7.53;;;2.50;;
80297;SDS011;69599;52.622;9.230;2024-01-16T07:46:13;5.03;;;1.98;;
80297;SDS011;69599;52.622;9.230;2024-01-16T07:48:38;7.57;;;2.53;;
80297;SDS011;69599;52.622;9.230;2024-01-16T07:51:04;7.07;;;2.38;;
80297;SDS011;69599;52.622;9.230;2024-01-16T07:53:30;7.60;;;3.35;;
80297;SDS011;69599;52.622;9.230;2024-01-16T07:55:56;10.95;;;2.30;;
80297;SDS011;69599;52.622;9.230;2024-01-16T07:58:21;5.28;;;2.35;;
80297;SDS011;69599;52.622;9.230;2024-01-16T08:00:47;5.55;;;3.03;;
80297;SDS011;69599;52.622;9.230;2024-01-16T08:03:12;4.85;;;2.63;;
80297;SDS011;69599;52.622;9.230;2024-01-16T08:05:39;13.77;;;4.53;;
80297;SDS011;69599;52.622;9.230;2024-01-16T08:08:05;7.88;;;3.13;;
80297;SDS011;69599;52.622;9.230;2024-01-16T08:10:32;8.63;;;3.75;;
80297;SDS011;69599;52.622;9.230;2024-01-16T08:12:58;7.95;;;3.05;;
80297;SDS011;69599;52.622;9.230;2024-01-16T08:15:23;7.68;;;3.47;;
80297;SDS011;69599;52.622;9.230;2024-01-16T08:17:49;6.97;;;3.47;;
80297;SDS011;69599;52.622;9.230;2024-01-16T08:20:14;6.35;;;3.55;;
80297;SDS011;69599;52.622;9.230;2024-01-16T08:22:39;8.95;;;3.85;;
80297;SDS011;69599;52.622;9.230;2024-01-16T08:25:05;7.10;;;4.35;;
80297;SDS011;69599;52.622;9.230;2024-01-16T08:27:31;7.00;;;3.78;;
80297;SDS011;69599;52.622;9.230;2024-01-16T08:29:56;6.75;;;3.50;;
80297;SDS011;69599;52.622;9.230;2024-01-16T08:32:22;8.55;;;4.05;;
80297;SDS011;69599;52.622;9.230;2024-01-16T08:34:47;7.18;;;3.88;;
80297;SDS011;69599;52.622;9.230;2024-01-16T08:37:12;7.85;;;3.35;;
80297;SDS011;69599;52.622;9.230;2024-01-16T08:39:38;9.02;;;4.22;;
80297;SDS011;69599;52.622;9.230;2024-01-16T08:42:03;9.80;;;3.72;;
80297;SDS011;69599;52.622;9.230;2024-01-16T08:44:29;10.20;;;4.45;;
80297;SDS011;69599;52.622;9.230;2024-01-16T08:46:54;10.30;;;3.92;;
80297;SDS011;69599;52.622;9.230;2024-01-16T08:49:20;9.20;;;3.40;;
80297;SDS011;69599;52.622;9.230;2024-01-16T08:51:45;12.50;;;4.82;;
80297;SDS011;69599;52.622;9.230;2024-01-16T08:54:11;8.35;;;3.80;;
80297;SDS011;69599;52.622;9.230;2024-01-16T08:56:36;8.52;;;4.20;;
80297;SDS011;69599;52.622;9.230;2024-01-16T08:59:02;9.25;;;4.00;;
80297;SDS011;69599;52.622;9.230;2024-01-16T09:01:27;9.93;;;4.82;;
80297;SDS011;69599;52.622;9.230;2024-01-16T09:03:53;8.32;;;5.38;;
80297;SDS011;69599;52.622;9.230;2024-01-16T09:06:18;8.15;;;3.60;;
80297;SDS011;69599;52.622;9.230;2024-01-16T09:08:43;9.45;;;4.85;;
80297;SDS011;69599;52.622;9.230;2024-01-16T09:11:09;8.35;;;4.25;;
80297;SDS011;69599;52.622;9.230;2024-01-16T09:13:36;10.20;;;4.95;;
80297;SDS011;69599;52.622;9.230;2024-01-16T09:16:02;13.05;;;4.30;;
80297;SDS011;69599;52.622;9.230;2024-01-16T09:18:28;11.60;;;3.53;;
80297;SDS011;69599;52.622;9.230;2024-01-16T09:20:53;10.32;;;3.97;;
80297;SDS011;69599;52.622;9.230;2024-01-16T09:23:20;10.07;;;4.80;;
80297;SDS011;69599;52.622;9.230;2024-01-16T09:25:45;10.70;;;4.07;;
80297;SDS011;69599;52.622;9.230;2024-01-16T09:28:10;8.13;;;4.10;;
80297;SDS011;69599;52.622;9.230;2024-01-16T09:30:37;8.85;;;4.22;;
80297;SDS011;69599;52.622;9.230;2024-01-16T09:33:03;9.13;;;4.50;;
80297;SDS011;69599;52.622;9.230;2024-01-16T09:35:31;10.90;;;5.30;;
80297;SDS011;69599;52.622;9.230;2024-01-16T09:37:57;9.95;;;6.38;;
80297;SDS011;69599;52.622;9.230;2024-01-16T09:40:24;10.52;;;5.82;;
80297;SDS011;69599;52.622;9.230;2024-01-16T09:42:50;12.00;;;7.22;;
80297;SDS011;69599;52.622;9.230;2024-01-16T09:45:18;11.98;;;4.93;;
80297;SDS011;69599;52.622;9.230;2024-01-16T09:50:11;8.52;;;4.55;;
80297;SDS011;69599;52.622;9.230;2024-01-16T09:52:37;7.63;;;4.32;;
80297;SDS011;69599;52.622;9.230;2024-01-16T09:55:02;11.27;;;5.38;;
80297;SDS011;69599;52.622;9.230;2024-01-16T09:57:28;9.43;;;4.25;;
80297;SDS011;69599;52.622;9.230;2024-01-16T09:59:54;13.68;;;5.32;;
80297;SDS011;69599;52.622;9.230;2024-01-16T10:02:21;10.07;;;4.70;;
80297;SDS011;69599;52.622;9.230;2024-01-16T10:04:47;11.68;;;6.75;;
80297;SDS011;69599;52.622;9.230;2024-01-16T10:07:13;15.23;;;7.03;;
80297;SDS011;69599;52.622;9.230;2024-01-16T10:09:39;10.60;;;5.47;;
80297;SDS011;69599;52.622;9.230;2024-01-16T10:12:05;12.23;;;5.43;;
80297;SDS011;69599;52.622;9.230;2024-01-16T10:14:32;14.35;;;8.07;;
80297;SDS011;69599;52.622;9.230;2024-01-16T10:16:58;9.27;;;5.55;;
80297;SDS011;69599;52.622;9.230;2024-01-16T10:19:27;8.32;;;4.60;;
80297;SDS011;69599;52.622;9.230;2024-01-16T10:21:52;9.05;;;5.18;;
80297;SDS011;69599;52.622;9.230;2024-01-16T10:24:25;8.18;;;4.15;;
80297;SDS011;69599;52.622;9.230;2024-01-16T10:26:57;8.98;;;4.95;;
80297;SDS011;69599;52.622;9.230;2024-01-16T10:29:24;8.38;;;4.07;;
80297;SDS011;69599;52.622;9.230;2024-01-16T10:31:49;10.02;;;4.50;;
80297;SDS011;69599;52.622;9.230;2024-01-16T10:34:24;7.75;;;3.50;;
80297;SDS011;69599;52.622;9.230;2024-01-16T10:36:50;6.18;;;3.58;;
80297;SDS011;69599;52.622;9.230;2024-01-16T10:39:17;9.68;;;3.80;;
80297;SDS011;69599;52.622;9.230;2024-01-16T10:41:53;11.40;;;4.10;;
80297;SDS011;69599;52.622;9.230;2024-01-16T10:44:19;6.15;;;3.30;;
80297;SDS011;69599;52.622;9.230;2024-01-16T10:46:44;9.32;;;4.65;;
80297;SDS011;69599;52.622;9.230;2024-01-16T10:49:10;8.98;;;4.35;;
80297;SDS011;69599;52.622;9.230;2024-01-16T10:51:35;13.73;;;4.88;;
80297;SDS011;69599;52.622;9.230;2024-01-16T10:54:04;6.32;;;3.67;;
80297;SDS011;69599;52.622;9.230;2024-01-16T10:56:36;8.80;;;4.72;;
80297;SDS011;69599;52.622;9.230;2024-01-16T11:01:36;7.72;;;4.57;;
80297;SDS011;69599;52.622;9.230;2024-01-16T11:04:02;6.88;;;3.47;;
80297;SDS011;69599;52.622;9.230;2024-01-16T11:06:28;10.43;;;4.95;;
80297;SDS011;69599;52.622;9.230;2024-01-16T11:08:53;6.47;;;2.80;;
80297;SDS011;69599;52.622;9.230;2024-01-16T11:11:19;6.68;;;3.50;;
80297;SDS011;69599;52.622;9.230;2024-01-16T11:13:45;10.73;;;3.42;;
80297;SDS011;69599;52.622;9.230;2024-01-16T11:16:11;6.38;;;3.60;;
80297;SDS011;69599;52.622;9.230;2024-01-16T11:18:37;6.25;;;3.05;;
80297;SDS011;69599;52.622;9.230;2024-01-16T11:21:03;8.65;;;2.67;;
80297;SDS011;69599;52.622;9.230;2024-01-16T11:23:30;5.18;;;3.00;;
80297;SDS011;69599;52.622;9.230;2024-01-16T11:25:56;6.60;;;3.30;;
80297;SDS011;69599;52.622;9.230;2024-01-16T11:28:21;7.00;;;4.75;;
80297;SDS011;69599;52.622;9.230;2024-01-16T11:30:52;7.60;;;3.00;;
80297;SDS011;69599;52.622;9.230;2024-01-16T11:36:00;7.85;;;4.03;;
80297;SDS011;69599;52.622;9.230;2024-01-16T11:38:26;5.60;;;3.17;;
80297;SDS011;69599;52.622;9.230;2024-01-16T11:40:58;6.40;;;3.17;;
80297;SDS011;69599;52.622;9.230;2024-01-16T11:45:59;6.15;;;3.40;;
80297;SDS011;69599;52.622;9.230;2024-01-16T11:48:25;7.40;;;2.90;;
80297;SDS011;69599;52.622;9.230;2024-01-16T11:50:51;7.35;;;3.67;;
80297;SDS011;69599;52.622;9.230;2024-01-16T11:59:08;10.13;;;3.63;;
80297;SDS011;69599;52.622;9.230;2024-01-16T12:01:39;10.38;;;4.95;;
80297;SDS011;69599;52.622;9.230;2024-01-16T12:04:07;6.38;;;3.58;;
80297;SDS011;69599;52.622;9.230;2024-01-16T12:06:34;24.20;;;14.35;;
80297;SDS011;69599;52.622;9.230;2024-01-16T12:09:13;13.98;;;6.13;;
80297;SDS011;69599;52.622;9.230;2024-01-16T12:11:39;13.10;;;5.65;;
80297;SDS011;69599;52.622;9.230;2024-01-16T12:14:05;12.27;;;7.00;;
80297;SDS011;69599;52.622;9.230;2024-01-16T12:16:30;15.43;;;8.50;;
80297;SDS011;69599;52.622;9.230;2024-01-16T12:19:09;12.27;;;4.38;;
80297;SDS011;69599;52.622;9.230;2024-01-16T12:21:41;28.02;;;22.83;;
80297;SDS011;69599;52.622;9.230;2024-01-16T12:24:09;16.13;;;14.27;;
80297;SDS011;69599;52.622;9.230;2024-01-16T12:26:35;14.93;;;12.75;;
80297;SDS011;69599;52.622;9.230;2024-01-16T12:29:01;12.75;;;10.40;;
80297;SDS011;69599;52.622;9.230;2024-01-16T12:31:27;9.27;;;6.95;;
80297;SDS011;69599;52.622;9.230;2024-01-16T12:33:53;9.00;;;4.97;;
80297;SDS011;69599;52.622;9.230;2024-01-16T12:36:19;11.50;;;7.07;;
80297;SDS011;69599;52.622;9.230;2024-01-16T12:38:45;13.50;;;10.63;;
80297;SDS011;69599;52.622;9.230;2024-01-16T12:41:20;9.00;;;6.90;;
80297;SDS011;69599;52.622;9.230;2024-01-16T12:43:48;5.57;;;4.32;;
80297;SDS011;69599;52.622;9.230;2024-01-16T12:46:15;7.82;;;5.10;;
80297;SDS011;69599;52.622;9.230;2024-01-16T12:48:41;6.60;;;3.92;;
80297;SDS011;69599;52.622;9.230;2024-01-16T12:51:06;5.03;;;3.80;;
80297;SDS011;69599;52.622;9.230;2024-01-16T12:53:32;7.35;;;4.13;;
80297;SDS011;69599;52.622;9.230;2024-01-16T12:55:59;6.30;;;2.78;;
80297;SDS011;69599;52.622;9.230;2024-01-16T12:58:31;6.32;;;3.45;;
80297;SDS011;69599;52.622;9.230;2024-01-16T13:01:19;7.50;;;4.57;;
80297;SDS011;69599;52.622;9.230;2024-01-16T13:03:54;9.10;;;4.15;;
80297;SDS011;69599;52.622;9.230;2024-01-16T13:06:20;8.00;;;3.97;;
80297;SDS011;69599;52.622;9.230;2024-01-16T13:08:49;7.30;;;3.42;;
80297;SDS011;69599;52.622;9.230;2024-01-16T13:11:15;8.50;;;3.72;;
80297;SDS011;69599;52.622;9.230;2024-01-16T13:13:44;6.68;;;3.78;;
80297;SDS011;69599;52.622;9.230;2024-01-16T13:16:13;7.93;;;3.95;;
80297;SDS011;69599;52.622;9.230;2024-01-16T13:18:38;9.07;;;3.10;;
80297;SDS011;69599;52.622;9.230;2024-01-16T13:21:04;8.02;;;3.58;;
80297;SDS011;69599;52.622;9.230;2024-01-16T13:23:30;6.35;;;2.63;;
80297;SDS011;69599;52.622;9.230;2024-01-16T13:25:56;6.72;;;3.50;;
80297;SDS011;69599;52.622;9.230;2024-01-16T13:28:24;6.65;;;3.80;;
80297;SDS011;69599;52.622;9.230;2024-01-16T13:30:50;8.90;;;4.93;;
80297;SDS011;69599;52.622;9.230;2024-01-16T13:33:16;6.20;;;3.15;;
80297;SDS011;69599;52.622;9.230;2024-01-16T13:35:42;6.43;;;3.67;;
80297;SDS011;69599;52.622;9.230;2024-01-16T13:38:08;8.57;;;4.65;;
80297;SDS011;69599;52.622;9.230;2024-01-16T13:40:35;8.38;;;3.47;;
80297;SDS011;69599;52.622;9.230;2024-01-16T13:43:04;9.15;;;5.50;;
80297;SDS011;69599;52.622;9.230;2024-01-16T13:45:31;7.55;;;4.90;;
80297;SDS011;69599;52.622;9.230;2024-01-16T13:47:57;7.82;;;5.97;;
80297;SDS011;69599;52.622;9.230;2024-01-16T13:50:23;9.88;;;7.07;;
80297;SDS011;69599;52.622;9.230;2024-01-16T13:52:48;7.25;;;4.22;;
80297;SDS011;69599;52.622;9.230;2024-01-16T13:55:14;7.53;;;5.60;;
80297;SDS011;69599;52.622;9.230;2024-01-16T13:57:40;11.23;;;6.03;;
80297;SDS011;69599;52.622;9.230;2024-01-16T14:00:10;10.95;;;4.70;;
80297;SDS011;69599;52.622;9.230;2024-01-16T14:02:41;12.80;;;5.90;;
80297;SDS011;69599;52.622;9.230;2024-01-16T14:05:11;18.20;;;8.43;;
80297;SDS011;69599;52.622;9.230;2024-01-16T14:07:41;13.23;;;6.90;;
80297;SDS011;69599;52.622;9.230;2024-01-16T14:10:07;11.48;;;4.57;;
80297;SDS011;69599;52.622;9.230;2024-01-16T14:12:41;10.40;;;5.20;;
80297;SDS011;69599;52.622;9.230;2024-01-16T14:15:13;11.85;;;5.53;;
80297;SDS011;69599;52.622;9.230;2024-01-16T14:17:50;9.68;;;5.32;;
80297;SDS011;69599;52.622;9.230;2024-01-16T14:20:16;9.95;;;5.57;;
80297;SDS011;69599;52.622;9.230;2024-01-16T14:22:43;15.27;;;6.47;;
80297;SDS011;69599;52.622;9.230;2024-01-16T14:25:09;10.48;;;5.57;;
80297;SDS011;69599;52.622;9.230;2024-01-16T14:27:47;9.07;;;5.28;;
80297;SDS011;69599;52.622;9.230;2024-01-16T14:30:23;12.13;;;6.43;;
80297;SDS011;69599;52.622;9.230;2024-01-16T14:32:50;13.85;;;7.18;;
80297;SDS011;69599;52.622;9.230;2024-01-16T14:35:16;11.43;;;7.50;;
80297;SDS011;69599;52.622;9.230;2024-01-16T14:37:42;14.80;;;6.70;;
80297;SDS011;69599;52.622;9.230;2024-01-16T14:40:08;15.25;;;6.72;;
80297;SDS011;69599;52.622;9.230;2024-01-16T14:42:48;13.88;;;6.82;;
80297;SDS011;69599;52.622;9.230;2024-01-16T14:45:16;13.55;;;6.90;;
80297;SDS011;69599;52.622;9.230;2024-01-16T14:47:41;11.60;;;7.10;;
80297;SDS011;69599;52.622;9.230;2024-01-16T14:50:07;14.88;;;7.78;;
80297;SDS011;69599;52.622;9.230;2024-01-16T14:52:34;14.68;;;7.72;;
80297;SDS011;69599;52.622;9.230;2024-01-16T14:55:03;13.27;;;7.70;;
80297;SDS011;69599;52.622;9.230;2024-01-16T14:57:32;14.45;;;7.80;;